Time;durP1;ratioP1;P1;durP2;ratioP2;P2;SDS_P1;SDS_P2;PMS_P1;PMS_P2;Temp;Humidity;BMP_temperature;BMP_pressure;BME280_temperature;BME280_humidity;BME280_pressure;Samples;Min_cycle;Max_cycle;Signal;HPM_P1;HPM_P2
2022/04/26 03:37:05;;;;;;;18.23;10.32;;;;;;;;;;5003260;28;20049;-72
2022/04/26 03:39:32;;;;;;;19.95;10.82;;;;;;;;;;4986329;28;20058;-72
2022/04/26 03:41:59;;;;;;;22.63;10.02;;;;;;;;;;4990502;28;20078;-72
2022/04/26 03:44:25;;;;;;;26.45;10.10;;;;;;;;;;5007497;28;20046;-72
2022/04/26 03:46:51;;;;;;;23.65;10.05;;;;;;;;;;5004324;28;20103;-73
2022/04/26 03:49:18;;;;;;;18.85;9.73;;;;;;;;;;4992359;28;20109;-73
2022/04/26 03:51:44;;;;;;;18.02;9.35;;;;;;;;;;4988719;28;20049;-72
2022/04/26 03:54:10;;;;;;;24.95;9.30;;;;;;;;;;4983046;28;20053;-72
2022/04/26 03:56:36;;;;;;;19.98;9.43;;;;;;;;;;5006469;28;20134;-72
2022/04/26 03:59:02;;;;;;;20.20;9.35;;;;;;;;;;4968147;28;20042;-78
2022/04/26 04:01:28;;;;;;;20.38;9.63;;;;;;;;;;5004361;28;20509;-72
2022/04/26 04:03:54;;;;;;;20.63;9.18;;;;;;;;;;4991509;28;20053;-72
2022/04/26 04:06:20;;;;;;;22.90;9.40;;;;;;;;;;4992162;28;20398;-72
2022/04/26 04:08:46;;;;;;;19.98;8.98;;;;;;;;;;5011334;28;20046;-72
2022/04/26 04:11:12;;;;;;;18.10;8.88;;;;;;;;;;4991590;28;20511;-72
2022/04/26 04:13:38;;;;;;;17.92;8.60;;;;;;;;;;4971767;28;20056;-72
2022/04/26 04:16:04;;;;;;;17.60;8.18;;;;;;;;;;4978103;28;20050;-73
2022/04/26 04:21:15;;;;;;;20.13;9.02;;;;;;;;;;4990918;28;20073;-72
2022/04/26 04:23:41;;;;;;;25.10;8.98;;;;;;;;;;5006907;28;20409;-72
2022/04/26 04:26:07;;;;;;;15.38;8.15;;;;;;;;;;4970365;28;20212;-74
2022/04/26 04:28:34;;;;;;;15.43;8.18;;;;;;;;;;4997312;28;20499;-71
2022/04/26 04:31:00;;;;;;;18.33;8.32;;;;;;;;;;4968121;28;20042;-71
2022/04/26 04:33:27;;;;;;;23.02;9.30;;;;;;;;;;4985272;28;20089;-75
2022/04/26 04:35:53;;;;;;;21.40;8.20;;;;;;;;;;4986459;28;20588;-74
2022/04/26 04:38:19;;;;;;;21.75;8.48;;;;;;;;;;4989537;28;20401;-73
2022/04/26 04:40:45;;;;;;;23.77;8.50;;;;;;;;;;4986194;28;20152;-74
2022/04/26 04:43:11;;;;;;;20.13;8.52;;;;;;;;;;4971944;28;20052;-73
2022/04/26 04:45:38;;;;;;;20.75;8.70;;;;;;;;;;4996374;28;20088;-74
2022/04/26 04:48:05;;;;;;;21.05;8.18;;;;;;;;;;4983926;28;20081;-82
2022/04/26 04:50:32;;;;;;;18.75;7.90;;;;;;;;;;4993721;28;20049;-73
2022/04/26 04:52:58;;;;;;;15.18;7.53;;;;;;;;;;4990373;28;20042;-73
2022/04/26 04:55:24;;;;;;;17.83;7.63;;;;;;;;;;5006806;28;20049;-74
2022/04/26 04:57:50;;;;;;;19.70;8.05;;;;;;;;;;4971488;28;20046;-73
2022/04/26 05:00:16;;;;;;;18.17;8.45;;;;;;;;;;4984419;28;20137;-73
2022/04/26 05:02:43;;;;;;;22.77;8.35;;;;;;;;;;4988365;28;20453;-76
2022/04/26 05:05:09;;;;;;;18.90;8.10;;;;;;;;;;5000902;28;20111;-76
2022/04/26 05:07:36;;;;;;;16.45;7.85;;;;;;;;;;5007648;28;20038;-73
2022/04/26 05:10:02;;;;;;;12.85;7.15;;;;;;;;;;4980314;28;20079;-75
2022/04/26 05:12:28;;;;;;;17.60;7.25;;;;;;;;;;5005977;28;20068;-75
2022/04/26 05:14:54;;;;;;;18.17;6.90;;;;;;;;;;4997213;28;20065;-74
2022/04/26 05:17:21;;;;;;;17.42;7.20;;;;;;;;;;4979414;28;20046;-73
2022/04/26 05:19:47;;;;;;;13.63;6.43;;;;;;;;;;4975850;28;20057;-74
2022/04/26 05:22:14;;;;;;;16.63;6.78;;;;;;;;;;5011631;28;20513;-72
2022/04/26 05:24:58;;;;;;;10.65;5.90;;;;;;;;;;5008965;28;20485;-75
2022/04/26 05:27:26;;;;;;;14.32;5.32;;;;;;;;;;4985019;28;20486;-76
2022/04/26 05:29:52;;;;;;;14.05;5.60;;;;;;;;;;4975224;28;20088;-73
2022/04/26 05:32:19;;;;;;;11.93;5.15;;;;;;;;;;4990319;28;20052;-79
2022/04/26 05:34:46;;;;;;;13.15;5.57;;;;;;;;;;5004685;28;20225;-77
2022/04/26 05:37:12;;;;;;;14.60;4.95;;;;;;;;;;5003134;28;20111;-77
2022/04/26 05:39:38;;;;;;;13.20;5.50;;;;;;;;;;4986199;28;20076;-74
2022/04/26 05:42:04;;;;;;;13.40;5.03;;;;;;;;;;4987505;28;20096;-72
2022/04/26 05:44:30;;;;;;;12.70;4.65;;;;;;;;;;4986071;28;20157;-75
2022/04/26 05:46:56;;;;;;;10.63;4.72;;;;;;;;;;4990373;28;20104;-72
2022/04/26 05:49:22;;;;;;;7.68;4.00;;;;;;;;;;5005850;28;20073;-71
2022/04/26 05:51:51;;;;;;;12.82;4.25;;;;;;;;;;5009608;28;20046;-71
2022/04/26 05:54:17;;;;;;;13.13;4.07;;;;;;;;;;4982145;28;20776;-73
2022/04/26 05:56:43;;;;;;;11.48;3.67;;;;;;;;;;5019418;28;20050;-73
2022/04/26 05:59:09;;;;;;;10.30;3.88;;;;;;;;;;5011150;28;20038;-78
2022/04/26 06:01:35;;;;;;;12.95;3.92;;;;;;;;;;4993756;28;20058;-71
2022/04/26 06:04:01;;;;;;;;;;;;;;;;;;4994272;28;20046;-77
2022/04/26 06:06:27;;;;;;;;;;;;;;;;;;5009486;28;19922;-76
2022/04/26 06:08:53;;;;;;;;;;;;;;;;;;5007780;28;19943;-72
2022/04/26 06:11:19;;;;;;;;;;;;;;;;;;4993486;28;19992;-72
2022/04/26 06:13:45;;;;;;;;;;;;;;;;;;5000607;28;19922;-72
2022/04/26 06:16:11;;;;;;;;;;;;;;;;;;5001988;28;19925;-78
2022/04/26 06:18:37;;;;;;;;;;;;;;;;;;4993870;28;20050;-72
2022/04/26 06:21:03;;;;;;;;;;;;;;;;;;5007162;28;19929;-72
2022/04/26 06:23:29;;;;;;;;;;;;;;;;;;5009814;28;19925;-72
2022/04/26 06:25:55;;;;;;;;;;;;;;;;;;5004919;28;19952;-73
2022/04/26 06:28:21;;;;;;;;;;;;;;;;;;5005785;28;19922;-72
2022/04/26 06:30:47;;;;;;;;;;;;;;;;;;5002095;28;20043;-72
2022/04/26 06:33:13;;;;;;;;;;;;;;;;;;4984007;28;19928;-77
2022/04/26 06:35:40;;;;;;;;;;;;;;;;;;5001737;28;20685;-72
2022/04/26 06:38:06;;;;;;;16.55;3.53;;;;;;;;;;4990761;28;19932;-71
2022/04/26 06:40:32;;;;;;;8.95;3.58;;;;;;;;;;4993494;28;20042;-71
2022/04/26 06:42:58;;;;;;;12.07;3.45;;;;;;;;;;4994577;28;20605;-71
2022/04/26 06:45:24;;;;;;;9.88;4.53;;;;;;;;;;4986761;28;20058;-72
2022/04/26 06:47:50;;;;;;;10.88;3.80;;;;;;;;;;4993951;28;20045;-72
2022/04/26 06:50:17;;;;;;;12.25;4.57;;;;;;;;;;5007925;28;20061;-72
2022/04/26 06:52:44;;;;;;;12.85;3.50;;;;;;;;;;5007505;28;20112;-72
2022/04/26 06:55:10;;;;;;;9.70;3.80;;;;;;;;;;4969624;28;20041;-74
2022/04/26 06:57:37;;;;;;;10.43;3.75;;;;;;;;;;4984782;28;20501;-72
2022/04/26 07:00:07;;;;;;;13.05;4.60;;;;;;;;;;4984091;28;20054;-74
2022/04/26 07:02:34;;;;;;;9.20;3.80;;;;;;;;;;4988346;28;20687;-74
2022/04/26 07:05:00;;;;;;;8.85;3.90;;;;;;;;;;4986171;28;21718;-73
2022/04/26 07:07:26;;;;;;;;;;;;;;;;;;5003749;28;20050;-74
2022/04/26 07:09:52;;;;;;;11.27;3.53;;;;;;;;;;5005766;28;19929;-82
2022/04/26 07:12:18;;;;;;;10.90;3.45;;;;;;;;;;5002039;28;20077;-75
2022/04/26 07:14:44;;;;;;;10.85;3.35;;;;;;;;;;4963603;28;20041;-72
2022/04/26 07:17:10;;;;;;;10.02;3.22;;;;;;;;;;4989216;28;20156;-72
2022/04/26 07:19:37;;;;;;;9.85;4.32;;;;;;;;;;4991036;28;20167;-71
2022/04/26 07:22:03;;;;;;;8.52;3.72;;;;;;;;;;4987401;28;20050;-73
2022/04/26 07:24:31;;;;;;;8.98;3.17;;;;;;;;;;4988203;28;20049;-77
2022/04/26 07:26:57;;;;;;;14.32;3.58;;;;;;;;;;4992924;28;20050;-75
2022/04/26 07:29:23;;;;;;;12.00;3.42;;;;;;;;;;4988049;28;20049;-79
2022/04/26 07:31:49;;;;;;;10.95;4.00;;;;;;;;;;4997833;28;20133;-76
2022/04/26 07:34:21;;;;;;;10.85;3.88;;;;;;;;;;4964868;28;20092;-77
2022/04/26 07:36:48;;;;;;;25.00;16.30;;;;;;;;;;4974448;28;20042;-74
2022/04/26 07:39:17;;;;;;;10.18;3.35;;;;;;;;;;4988351;28;20086;-79
2022/04/26 07:41:43;;;;;;;7.18;3.45;;;;;;;;;;4984470;28;20069;-78
2022/04/26 07:44:09;;;;;;;7.07;3.17;;;;;;;;;;4996513;28;20049;-77
2022/04/26 07:46:35;;;;;;;10.00;3.85;;;;;;;;;;4949954;28;20061;-77
2022/04/26 07:49:01;;;;;;;8.60;2.80;;;;;;;;;;4967251;28;20535;-78
2022/04/26 07:51:27;;;;;;;9.73;3.42;;;;;;;;;;4972616;28;20176;-81
2022/04/26 07:53:54;;;;;;;10.07;3.22;;;;;;;;;;4968222;28;20421;-78
2022/04/26 07:56:20;;;;;;;6.22;2.53;;;;;;;;;;4970984;28;20444;-76
2022/04/26 07:58:47;;;;;;;5.63;2.60;;;;;;;;;;4990632;28;20076;-75
2022/04/26 08:01:13;;;;;;;6.63;3.10;;;;;;;;;;4992198;28;20428;-75
2022/04/26 08:03:39;;;;;;;8.85;3.20;;;;;;;;;;4973675;28;21013;-76
2022/04/26 08:06:05;;;;;;;8.38;3.30;;;;;;;;;;5007321;28;20832;-76
2022/04/26 08:08:31;;;;;;;7.00;2.60;;;;;;;;;;4952745;28;20474;-76
2022/04/26 08:10:58;;;;;;;7.15;2.75;;;;;;;;;;4976459;28;20042;-76
2022/04/26 08:13:24;;;;;;;11.80;2.40;;;;;;;;;;4998380;28;20042;-76
2022/04/26 08:15:50;;;;;;;;;;;;;;;;;;4992978;28;20046;-76
2022/04/26 08:18:16;;;;;;;;;;;;;;;;;;5008115;28;19925;-78
2022/04/26 08:20:42;;;;;;;;;;;;;;;;;;4971855;28;20074;-76
2022/04/26 08:23:08;;;;;;;;;;;;;;;;;;4975757;28;20162;-75
2022/04/26 08:28:19;;;;;;;;;;;;;;;;;;4990495;28;19926;-76
2022/04/26 08:30:44;;;;;;;;;;;;;;;;;;4996034;28;20413;-76
2022/04/26 08:33:10;;;;;;;;;;;;;;;;;;4991978;28;20383;-76
2022/04/26 08:35:36;;;;;;;;;;;;;;;;;;4972083;28;19992;-75
2022/04/26 08:38:02;;;;;;;;;;;;;;;;;;4992571;28;19928;-75
2022/04/26 08:40:28;;;;;;;;;;;;;;;;;;5013786;28;19927;-76
2022/04/26 08:42:54;;;;;;;;;;;;;;;;;;5007934;28;19945;-77
2022/04/26 08:45:20;;;;;;;;;;;;;;;;;;4983810;28;19926;-81
2022/04/26 08:53:17;;;;;;;6.60;2.53;;;;;;;;;;4989215;28;20054;-80
2022/04/26 08:55:45;;;;;;;5.05;2.45;;;;;;;;;;4983383;28;20393;-80
2022/04/26 08:58:12;;;;;;;8.75;2.47;;;;;;;;;;4970780;28;20042;-76
2022/04/26 09:00:42;;;;;;;5.93;2.33;;;;;;;;;;4993853;28;20465;-75
2022/04/26 09:03:11;;;;;;;5.90;2.33;;;;;;;;;;4974913;28;20117;-76
2022/04/26 09:05:37;;;;;;;7.22;3.08;;;;;;;;;;4987180;28;20452;-80
2022/04/26 09:08:22;;;;;;;9.15;2.72;;;;;;;;;;4969304;28;20037;-77
2022/04/26 09:10:50;;;;;;;5.10;2.28;;;;;;;;;;4987924;28;20069;-80
2022/04/26 09:13:19;;;;;;;8.70;2.67;;;;;;;;;;4974398;28;20045;-75
2022/04/26 09:15:57;;;;;;;7.95;2.50;;;;;;;;;;4989824;28;20033;-76
2022/04/26 09:18:30;;;;;;;7.53;2.65;;;;;;;;;;4991825;28;20362;-75
2022/04/26 09:20:57;;;;;;;6.57;2.50;;;;;;;;;;5014535;28;20046;-75
2022/04/26 09:23:28;;;;;;;6.68;2.20;;;;;;;;;;4988419;28;20046;-76
2022/04/26 09:26:06;;;;;;;5.25;2.60;;;;;;;;;;4988701;28;20526;-76
2022/04/26 09:28:32;;;;;;;5.20;2.80;;;;;;;;;;5012799;28;20048;-79
2022/04/26 09:30:58;;;;;;;7.80;2.60;;;;;;;;;;5009678;28;20042;-75
2022/04/26 09:33:31;;;;;;;7.35;2.80;;;;;;;;;;4979777;28;20399;-76
2022/04/26 09:36:04;;;;;;;9.25;2.53;;;;;;;;;;4988266;28;20082;-76
2022/04/26 09:38:33;;;;;;;8.10;3.35;;;;;;;;;;4988903;28;20038;-76
2022/04/26 09:41:09;;;;;;;7.85;2.63;;;;;;;;;;4980087;28;20037;-81
2022/04/26 09:43:35;;;;;;;6.72;2.55;;;;;;;;;;4977006;28;20401;-77
2022/04/26 09:46:04;;;;;;;7.85;2.78;;;;;;;;;;4972494;28;20397;-78
2022/04/26 09:48:32;;;;;;;9.63;2.80;;;;;;;;;;4957502;28;20132;-79
2022/04/26 09:50:58;;;;;;;7.43;2.22;;;;;;;;;;4977327;28;20050;-77
2022/04/26 09:53:25;;;;;;;4.30;2.47;;;;;;;;;;4991238;28;20092;-77
2022/04/26 09:55:54;;;;;;;7.93;2.63;;;;;;;;;;4973657;28;20042;-80
2022/04/26 09:58:22;;;;;;;4.90;2.20;;;;;;;;;;4992187;28;20050;-78
2022/04/26 10:00:49;;;;;;;4.03;2.50;;;;;;;;;;4972375;28;20053;-78
2022/04/26 10:03:38;;;;;;;6.55;2.30;;;;;;;;;;4993044;28;20054;-81
2022/04/26 10:06:08;;;;;;;7.50;2.05;;;;;;;;;;4972756;28;20046;-84
2022/04/26 10:08:35;;;;;;;6.25;2.22;;;;;;;;;;4990781;28;20093;-87
2022/04/26 10:11:03;;;;;;;4.70;2.83;;;;;;;;;;4978771;28;20413;-84
2022/04/26 10:13:38;;;;;;;6.55;2.35;;;;;;;;;;4993114;28;20041;-86
2022/04/26 10:16:05;;;;;;;4.70;2.30;;;;;;;;;;4991424;28;20120;-83
2022/04/26 10:18:38;;;;;;;5.88;2.20;;;;;;;;;;4971520;28;20041;-80
2022/04/26 10:21:05;;;;;;;9.90;3.43;;;;;;;;;;4986911;28;20060;-83
2022/04/26 10:24:06;;;;;;;5.85;2.22;;;;;;;;;;4980779;28;20045;-83
2022/04/26 10:26:33;;;;;;;4.75;2.38;;;;;;;;;;4993175;28;20045;-77
2022/04/26 10:29:09;;;;;;;9.23;2.20;;;;;;;;;;4988720;28;20441;-76
2022/04/26 10:31:42;;;;;;;4.95;2.30;;;;;;;;;;4993500;28;20546;-73
2022/04/26 10:34:26;;;;;;;5.97;2.33;;;;;;;;;;4976840;28;20053;-75
2022/04/26 10:36:55;;;;;;;5.20;2.13;;;;;;;;;;4989658;28;20350;-76
2022/04/26 10:39:25;;;;;;;6.88;2.17;;;;;;;;;;5001335;28;20093;-76
2022/04/26 10:41:52;;;;;;;6.18;2.05;;;;;;;;;;4972068;28;20242;-76
2022/04/26 10:44:24;;;;;;;5.47;2.35;;;;;;;;;;4990306;28;20050;-75
2022/04/26 10:46:55;;;;;;;6.72;2.25;;;;;;;;;;4992982;28;20393;-76
2022/04/26 10:49:24;;;;;;;4.82;1.95;;;;;;;;;;4989468;28;20111;-84
2022/04/26 10:51:51;;;;;;;7.30;2.35;;;;;;;;;;4984821;28;20041;-82
2022/04/26 10:54:37;;;;;;;5.78;2.22;;;;;;;;;;4972388;28;20516;-80
2022/04/26 10:57:03;;;;;;;8.32;2.38;;;;;;;;;;4974135;28;20085;-81
2022/04/26 10:59:30;;;;;;;5.10;2.30;;;;;;;;;;4977981;28;20401;-77
2022/04/26 11:01:56;;;;;;;4.50;2.15;;;;;;;;;;4991520;28;20042;-80
2022/04/26 11:04:22;;;;;;;4.20;2.00;;;;;;;;;;4953758;28;20140;-78
2022/04/26 11:06:48;;;;;;;7.82;2.15;;;;;;;;;;4968085;28;20426;-78
2022/04/26 11:09:15;;;;;;;3.63;1.95;;;;;;;;;;4978213;28;20049;-76
2022/04/26 11:11:55;;;;;;;4.75;2.20;;;;;;;;;;4958917;28;20045;-78
2022/04/26 11:14:21;;;;;;;5.45;2.30;;;;;;;;;;4979229;28;20135;-80
2022/04/26 11:16:53;;;;;;;8.63;2.60;;;;;;;;;;4975952;28;20621;-77
2022/04/26 11:19:29;;;;;;;5.43;2.30;;;;;;;;;;4996604;28;20104;-81
2022/04/26 11:21:56;;;;;;;5.82;2.35;;;;;;;;;;4989084;28;20045;-78
2022/04/26 11:29:52;;;;;;;4.53;2.00;;;;;;;;;;4975544;28;20046;-77
2022/04/26 11:32:32;;;;;;;5.43;2.50;;;;;;;;;;4975991;28;20049;-77
2022/04/26 11:34:58;;;;;;;7.55;2.60;;;;;;;;;;5003270;28;20489;-74
2022/04/26 11:37:24;;;;;;;6.45;2.40;;;;;;;;;;4985912;28;20064;-76
2022/04/26 11:39:51;;;;;;;6.57;2.58;;;;;;;;;;4965852;28;20084;-77
2022/04/26 11:42:17;;;;;;;3.65;1.95;;;;;;;;;;4959844;28;20173;-78
2022/04/26 11:44:56;;;;;;;9.32;2.80;;;;;;;;;;4976938;28;20496;-76
2022/04/26 11:47:36;;;;;;;4.65;2.10;;;;;;;;;;4986916;28;20042;-76
2022/04/26 11:50:11;;;;;;;4.78;2.42;;;;;;;;;;4971415;28;20038;-76
2022/04/26 11:52:38;;;;;;;6.00;2.50;;;;;;;;;;4984789;28;20054;-78
2022/04/26 11:55:05;;;;;;;4.60;2.42;;;;;;;;;;4990131;28;20188;-77
2022/04/26 11:57:32;;;;;;;5.53;2.33;;;;;;;;;;4990230;28;20099;-76
2022/04/26 11:59:58;;;;;;;6.75;2.20;;;;;;;;;;5004187;28;20053;-76
2022/04/26 12:02:25;;;;;;;4.32;2.17;;;;;;;;;;4995622;28;20985;-77
2022/04/26 12:04:51;;;;;;;6.70;2.30;;;;;;;;;;4989766;28;20042;-76
2022/04/26 12:07:18;;;;;;;6.85;2.45;;;;;;;;;;5000694;28;20128;-76
2022/04/26 12:09:44;;;;;;;6.53;2.60;;;;;;;;;;4989920;28;20070;-77
2022/04/26 12:12:12;;;;;;;6.32;2.58;;;;;;;;;;5005982;28;20874;-76
2022/04/26 12:14:41;;;;;;;7.22;2.60;;;;;;;;;;4988273;28;20053;-83
2022/04/26 12:17:27;;;;;;;10.35;2.90;;;;;;;;;;4988850;28;20073;-86
2022/04/26 12:19:53;;;;;;;6.85;2.25;;;;;;;;;;4997500;28;20061;-80
2022/04/26 12:22:19;;;;;;;6.70;2.40;;;;;;;;;;4966123;28;20065;-78
2022/04/26 12:24:51;;;;;;;5.95;2.47;;;;;;;;;;4993113;28;20049;-80
2022/04/26 12:27:25;;;;;;;6.13;2.20;;;;;;;;;;5013264;28;20073;-80
2022/04/26 12:29:52;;;;;;;5.93;1.98;;;;;;;;;;5006540;28;20038;-77
2022/04/26 12:32:19;;;;;;;7.25;2.08;;;;;;;;;;5015435;28;20045;-78
2022/04/26 12:34:53;;;;;;;9.52;2.50;;;;;;;;;;4991395;28;20041;-80
2022/04/26 12:37:21;;;;;;;6.75;2.25;;;;;;;;;;5017758;28;20465;-77
2022/04/26 12:39:54;;;;;;;5.40;2.28;;;;;;;;;;5014149;28;20041;-78
2022/04/26 12:42:41;;;;;;;7.45;2.40;;;;;;;;;;5010538;28;20547;-77
2022/04/26 12:45:21;;;;;;;5.20;2.30;;;;;;;;;;4988446;28;20046;-76
2022/04/26 12:50:48;;;;;;;10.10;3.00;;;;;;;;;;4981285;28;20087;-76
2022/04/26 12:53:32;;;;;;;6.70;2.47;;;;;;;;;;4994788;28;20045;-81
2022/04/26 12:56:08;;;;;;;6.72;2.20;;;;;;;;;;4993629;28;20050;-77
2022/04/26 12:58:38;;;;;;;3.20;1.83;;;;;;;;;;4980257;28;20045;-76
2022/04/26 13:01:07;;;;;;;5.40;2.60;;;;;;;;;;5011736;28;20034;-77
2022/04/26 13:03:36;;;;;;;6.65;2.20;;;;;;;;;;4963217;28;20054;-77
2022/04/26 13:06:10;;;;;;;5.45;2.20;;;;;;;;;;4973497;28;20446;-76
2022/04/26 13:08:37;;;;;;;5.55;2.35;;;;;;;;;;4995762;28;20046;-78
2022/04/26 13:11:04;;;;;;;5.93;2.20;;;;;;;;;;4991911;28;20073;-76
2022/04/26 13:13:30;;;;;;;8.32;2.80;;;;;;;;;;4989952;28;20064;-78
2022/04/26 13:15:56;;;;;;;6.00;2.22;;;;;;;;;;5003560;28;20450;-76
2022/04/26 13:18:23;;;;;;;4.95;2.13;;;;;;;;;;5005537;28;20042;-80
2022/04/26 13:20:49;;;;;;;9.60;2.38;;;;;;;;;;4989569;28;20054;-76
2022/04/26 13:23:16;;;;;;;5.80;2.58;;;;;;;;;;4998992;28;20473;-78
2022/04/26 13:25:42;;;;;;;8.82;2.78;;;;;;;;;;4990801;28;20477;-76
2022/04/26 13:28:09;;;;;;;6.63;2.55;;;;;;;;;;4984716;28;20144;-77
2022/04/26 13:30:35;;;;;;;7.55;2.33;;;;;;;;;;4989248;28;20049;-76
2022/04/26 13:33:01;;;;;;;7.53;2.60;;;;;;;;;;4976093;28;20693;-81
2022/04/26 13:35:27;;;;;;;8.70;2.60;;;;;;;;;;5006937;28;20046;-79
2022/04/26 13:38:01;;;;;;;5.47;2.33;;;;;;;;;;4985364;28;20579;-79
2022/04/26 13:40:27;;;;;;;8.45;3.47;;;;;;;;;;4979872;28;20104;-79
2022/04/26 13:42:53;;;;;;;5.28;2.63;;;;;;;;;;4982423;28;20081;-83
2022/04/26 13:45:20;;;;;;;8.55;2.47;;;;;;;;;;4978214;28;20502;-80
2022/04/26 13:47:46;;;;;;;5.07;2.30;;;;;;;;;;4990879;28;20128;-78
2022/04/26 13:50:13;;;;;;;5.70;2.30;;;;;;;;;;4978417;28;20081;-82
2022/04/26 13:52:42;;;;;;;4.22;2.50;;;;;;;;;;4974574;28;20135;-80
2022/04/26 13:55:08;;;;;;;4.22;2.05;;;;;;;;;;4992028;28;20128;-79
2022/04/26 13:57:34;;;;;;;5.70;2.83;;;;;;;;;;4978216;28;20045;-79
2022/04/26 14:00:01;;;;;;;6.32;2.55;;;;;;;;;;4980262;28;20464;-84
2022/04/26 14:02:27;;;;;;;3.63;2.13;;;;;;;;;;4989589;28;20057;-81
2022/04/26 14:04:53;;;;;;;3.75;2.42;;;;;;;;;;4989013;28;20505;-82
2022/04/26 14:07:19;;;;;;;5.88;2.30;;;;;;;;;;4992881;28;20447;-88
2022/04/26 14:09:45;;;;;;;9.80;2.17;;;;;;;;;;4991252;28;20042;-80
2022/04/26 14:12:14;;;;;;;6.25;2.10;;;;;;;;;;4992831;28;20042;-82
2022/04/26 14:22:54;;;;;;;5.68;2.50;;;;;;;;;;4978026;28;20046;-78
2022/04/26 14:25:21;;;;;;;7.40;2.40;;;;;;;;;;4984338;28;20042;-79
2022/04/26 14:27:49;;;;;;;6.43;2.30;;;;;;;;;;4980971;28;20081;-84
2022/04/26 14:30:15;;;;;;;5.45;2.40;;;;;;;;;;5005604;28;20081;-78
2022/04/26 14:32:43;;;;;;;5.10;2.08;;;;;;;;;;4959108;28;20078;-76
2022/04/26 14:35:10;;;;;;;6.68;2.20;;;;;;;;;;4992700;28;20050;-83
2022/04/26 14:37:36;;;;;;;5.85;2.50;;;;;;;;;;4994031;28;20053;-79
2022/04/26 14:40:03;;;;;;;11.25;2.60;;;;;;;;;;4983635;28;20085;-79
2022/04/26 14:42:30;;;;;;;5.75;2.63;;;;;;;;;;5005653;28;20069;-79
2022/04/26 14:44:57;;;;;;;5.78;2.30;;;;;;;;;;5000892;28;20690;-79
2022/04/26 14:47:26;;;;;;;6.80;2.58;;;;;;;;;;5004701;28;20050;-80
2022/04/26 14:49:53;;;;;;;8.82;2.53;;;;;;;;;;5003396;28;20069;-80
2022/04/26 14:52:21;;;;;;;5.00;2.30;;;;;;;;;;5006992;28;20038;-81
2022/04/26 14:54:51;;;;;;;5.32;2.55;;;;;;;;;;4985406;28;20037;-81
2022/04/26 14:57:21;;;;;;;5.22;2.70;;;;;;;;;;4992038;28;20049;-81
2022/04/26 14:59:48;;;;;;;4.78;2.42;;;;;;;;;;5006367;28;20124;-80
2022/04/26 15:02:18;;;;;;;5.32;2.28;;;;;;;;;;5005766;28;20101;-80
2022/04/26 15:04:45;;;;;;;7.82;3.38;;;;;;;;;;5020170;28;20038;-81
2022/04/26 15:07:11;;;;;;;5.50;1.95;;;;;;;;;;5003178;28;20117;-80
2022/04/26 15:09:44;;;;;;;6.10;2.20;;;;;;;;;;4992246;28;20037;-80
2022/04/26 15:17:44;;;;;;;4.25;2.20;;;;;;;;;;5003243;28;20540;-80
2022/04/26 15:20:12;;;;;;;4.45;1.85;;;;;;;;;;4995366;28;20091;-79
2022/04/26 15:22:38;;;;;;;3.90;2.08;;;;;;;;;;4988331;28;20050;-83
2022/04/26 15:25:06;;;;;;;7.93;2.35;;;;;;;;;;5003281;28;20510;-83
2022/04/26 15:27:34;;;;;;;6.43;2.40;;;;;;;;;;5003107;28;20041;-78
2022/04/26 15:30:00;;;;;;;5.90;2.50;;;;;;;;;;4990144;28;20069;-84
2022/04/26 15:32:26;;;;;;;5.80;2.10;;;;;;;;;;4972586;28;20053;-78
2022/04/26 15:34:52;;;;;;;3.63;2.38;;;;;;;;;;4990432;28;20151;-86
2022/04/26 15:37:19;;;;;;;5.60;2.60;;;;;;;;;;5004885;28;20053;-78
2022/04/26 15:39:47;;;;;;;5.82;2.70;;;;;;;;;;4995015;28;20061;-90
2022/04/26 15:42:14;;;;;;;7.65;2.47;;;;;;;;;;4990882;28;20046;-85
2022/04/26 15:44:40;;;;;;;5.50;2.33;;;;;;;;;;4992777;28;20128;-84
2022/04/26 15:47:07;;;;;;;6.72;2.17;;;;;;;;;;4975065;28;20075;-83
2022/04/26 15:49:33;;;;;;;9.90;2.85;;;;;;;;;;4992750;28;20452;-84
2022/04/26 15:51:59;;;;;;;5.78;2.63;;;;;;;;;;4996142;28;20046;-85
2022/04/26 15:54:25;;;;;;;5.07;2.22;;;;;;;;;;4984480;28;20048;-82
2022/04/26 15:56:51;;;;;;;6.05;2.55;;;;;;;;;;4994711;28;20474;-82
2022/04/26 15:59:17;;;;;;;5.15;2.47;;;;;;;;;;5005651;28;20071;-84
2022/04/26 16:01:43;;;;;;;4.05;2.70;;;;;;;;;;4959077;28;20058;-84
2022/04/26 16:04:10;;;;;;;5.50;2.22;;;;;;;;;;4972241;28;20054;-77
2022/04/26 16:06:41;;;;;;;6.43;2.17;;;;;;;;;;5004168;28;20053;-76
2022/04/26 16:22:53;;;;;;;8.85;2.58;;;;;;;;;;4977714;28;20049;-76
2022/04/26 16:25:19;;;;;;;5.65;2.55;;;;;;;;;;4990998;28;20047;-78
2022/04/26 16:27:48;;;;;;;6.82;2.60;;;;;;;;;;4994067;28;20959;-80
2022/04/26 16:30:15;;;;;;;7.22;2.65;;;;;;;;;;4981187;28;20041;-77
2022/04/26 16:32:41;;;;;;;4.80;2.53;;;;;;;;;;4968882;28;20041;-83
2022/04/26 16:35:08;;;;;;;7.90;2.38;;;;;;;;;;4992718;28;20049;-77
2022/04/26 16:37:34;;;;;;;6.53;2.88;;;;;;;;;;4960163;28;20084;-83
2022/04/26 16:40:01;;;;;;;5.28;2.33;;;;;;;;;;4970801;28;20056;-78
2022/04/26 16:42:27;;;;;;;6.55;2.25;;;;;;;;;;4986129;28;20137;-79
2022/04/26 16:44:53;;;;;;;6.78;2.42;;;;;;;;;;4961559;28;20038;-82
2022/04/26 16:47:19;;;;;;;6.50;2.42;;;;;;;;;;4959242;28;20462;-79
2022/04/26 16:49:46;;;;;;;7.80;2.58;;;;;;;;;;4983766;28;20385;-80
2022/04/26 16:52:12;;;;;;;6.00;2.47;;;;;;;;;;4989437;28;20125;-81
2022/04/26 16:54:38;;;;;;;7.07;2.20;;;;;;;;;;4984675;28;20046;-77
2022/04/26 16:57:05;;;;;;;5.70;2.40;;;;;;;;;;4972850;28;20042;-81
2022/04/26 16:59:31;;;;;;;9.55;2.78;;;;;;;;;;5001381;28;20038;-80
2022/04/26 17:01:57;;;;;;;9.90;2.72;;;;;;;;;;4963995;28;20132;-79
2022/04/26 17:04:24;;;;;;;11.90;2.70;;;;;;;;;;4965052;28;20671;-81
2022/04/26 17:06:50;;;;;;;4.53;2.00;;;;;;;;;;4959713;28;20061;-81
2022/04/26 17:09:20;;;;;;;5.25;2.65;;;;;;;;;;4996039;28;20042;-82
2022/04/26 17:11:47;;;;;;;5.80;1.77;;;;;;;;;;4964954;28;20049;-81
2022/04/26 17:14:17;;;;;;;5.20;2.08;;;;;;;;;;5008673;28;20046;-82
2022/04/26 17:16:45;;;;;;;5.88;2.10;;;;;;;;;;4989795;28;20563;-84
2022/04/26 17:19:15;;;;;;;5.82;2.42;;;;;;;;;;4987305;28;20065;-80
2022/04/26 17:21:41;;;;;;;8.23;3.38;;;;;;;;;;4975641;28;20045;-81
2022/04/26 17:25:13;;;;;;;7.15;2.80;;;;;;;;;;5006516;28;20076;-81
2022/04/26 17:26:54;;;;;;;6.63;2.70;;;;;;;;;;4994445;28;20046;-82
2022/04/26 17:29:20;;;;;;;8.07;2.88;;;;;;;;;;4985662;28;20754;-82
2022/04/26 17:31:53;;;;;;;7.72;3.28;;;;;;;;;;4976785;28;20074;-76
2022/04/26 17:34:19;;;;;;;6.53;2.78;;;;;;;;;;4989412;28;20080;-77
2022/04/26 17:36:46;;;;;;;5.97;2.40;;;;;;;;;;4983861;28;20088;-76
2022/04/26 17:39:12;;;;;;;8.02;3.00;;;;;;;;;;4987089;28;20042;-82
2022/04/26 17:41:41;;;;;;;9.65;2.58;;;;;;;;;;4978764;28;20042;-79
2022/04/26 17:44:10;;;;;;;5.90;2.53;;;;;;;;;;4992429;28;20046;-85
2022/04/26 17:46:37;;;;;;;6.38;2.40;;;;;;;;;;4994367;28;20077;-79
2022/04/26 17:49:03;;;;;;;6.25;2.78;;;;;;;;;;5004868;28;20038;-83
2022/04/26 17:51:31;;;;;;;8.85;3.00;;;;;;;;;;4965355;28;20042;-81
2022/04/26 17:56:43;;;;;;;5.45;2.88;;;;;;;;;;4997726;28;20045;-81
2022/04/26 17:59:10;;;;;;;10.30;2.88;;;;;;;;;;4994775;28;20046;-81
2022/04/26 18:01:36;;;;;;;8.15;3.05;;;;;;;;;;4996943;28;20464;-81
2022/04/26 18:04:07;;;;;;;8.57;2.38;;;;;;;;;;4985974;28;20046;-80
2022/04/26 18:06:33;;;;;;;12.65;3.30;;;;;;;;;;4973817;28;20073;-82
2022/04/26 18:08:59;;;;;;;8.57;3.00;;;;;;;;;;4973578;28;20400;-82
2022/04/26 18:11:25;;;;;;;8.15;2.78;;;;;;;;;;4961538;28;20257;-82
2022/04/26 18:13:53;;;;;;;7.32;3.00;;;;;;;;;;4996157;28;20433;-81
2022/04/26 18:16:20;;;;;;;5.68;2.55;;;;;;;;;;4978093;28;20433;-82
2022/04/26 18:18:47;;;;;;;10.15;2.75;;;;;;;;;;4993576;28;20050;-85
2022/04/26 18:21:13;;;;;;;6.03;2.70;;;;;;;;;;4958307;28;20471;-80
2022/04/26 18:23:39;;;;;;;6.25;2.50;;;;;;;;;;4986949;28;20077;-85
2022/04/26 18:26:11;;;;;;;6.25;2.45;;;;;;;;;;4985924;28;20121;-82
2022/04/26 18:28:39;;;;;;;7.65;2.58;;;;;;;;;;4962008;28;20037;-77
2022/04/26 18:31:05;;;;;;;9.63;2.53;;;;;;;;;;4986053;28;20058;-78
2022/04/26 18:33:31;;;;;;;8.07;2.92;;;;;;;;;;4985292;28;20050;-78
2022/04/26 18:35:58;;;;;;;5.50;2.28;;;;;;;;;;4983248;28;20042;-79
2022/04/26 18:38:24;;;;;;;7.00;2.78;;;;;;;;;;4979024;28;20048;-79
2022/04/26 18:40:51;;;;;;;7.55;2.75;;;;;;;;;;4984262;28;20480;-78
2022/04/26 18:43:18;;;;;;;5.70;2.47;;;;;;;;;;4975449;28;20117;-81
2022/04/26 18:45:44;;;;;;;12.35;2.90;;;;;;;;;;4972467;28;20116;-84
2022/04/26 18:48:10;;;;;;;8.18;3.03;;;;;;;;;;4985808;28;20088;-79
2022/04/26 18:50:36;;;;;;;5.53;2.72;;;;;;;;;;4967882;28;20045;-82
2022/04/26 18:53:02;;;;;;;6.47;2.67;;;;;;;;;;4969589;28;20125;-80
2022/04/26 18:55:29;;;;;;;10.23;2.72;;;;;;;;;;4984706;28;20424;-80
2022/04/26 18:57:55;;;;;;;6.88;2.42;;;;;;;;;;4966568;28;20050;-81
2022/04/26 19:00:21;;;;;;;6.45;3.03;;;;;;;;;;4966823;28;20052;-85
2022/04/26 19:02:47;;;;;;;7.55;3.10;;;;;;;;;;4986105;28;20131;-84
2022/04/26 19:05:13;;;;;;;7.00;3.10;;;;;;;;;;4969595;28;20056;-82
2022/04/26 19:07:39;;;;;;;13.80;3.60;;;;;;;;;;5011487;28;20489;-81
2022/04/26 19:12:50;;;;;;;9.30;3.33;;;;;;;;;;4965712;28;20191;-83
2022/04/26 19:15:16;;;;;;;8.80;3.33;;;;;;;;;;4966948;28;20080;-83
2022/04/26 19:17:43;;;;;;;6.90;3.10;;;;;;;;;;4967798;28;20057;-81
2022/04/26 19:20:11;;;;;;;8.10;2.85;;;;;;;;;;4966997;28;20046;-85